sensor_id;sensor_type;location;lat;lon;timestamp;P1;durP1;ratioP1;P2;durP2;ratioP2
79019;SDS011;72857;44.740;37.770;2024-02-15T00:00:55;19.30;;;13.48;;
79019;SDS011;72857;44.740;37.770;2024-02-15T00:02:00;23.13;;;13.55;;
79019;SDS011;72857;44.740;37.770;2024-02-15T00:03:01;21.73;;;14.57;;
79019;SDS011;72857;44.740;37.770;2024-02-15T00:04:03;26.65;;;14.13;;
79019;SDS011;72857;44.740;37.770;2024-02-15T00:05:05;19.48;;;13.30;;
79019;SDS011;72857;44.740;37.770;2024-02-15T00:06:07;31.08;;;15.02;;
79019;SDS011;72857;44.740;37.770;2024-02-15T00:07:08;21.85;;;13.32;;
79019;SDS011;72857;44.740;37.770;2024-02-15T00:08:10;22.83;;;13.65;;
79019;SDS011;72857;44.740;37.770;2024-02-15T00:09:12;18.92;;;13.40;;
79019;SDS011;72857;44.740;37.770;2024-02-15T00:10:14;29.83;;;13.98;;
79019;SDS011;72857;44.740;37.770;2024-02-15T00:11:16;26.77;;;13.05;;
79019;SDS011;72857;44.740;37.770;2024-02-15T00:12:17;43.40;;;14.80;;
79019;SDS011;72857;44.740;37.770;2024-02-15T00:13:19;24.92;;;13.02;;
79019;SDS011;72857;44.740;37.770;2024-02-15T00:14:21;22.73;;;12.88;;
79019;SDS011;72857;44.740;37.770;2024-02-15T00:15:23;33.17;;;14.45;;
79019;SDS011;72857;44.740;37.770;2024-02-15T00:16:24;17.52;;;11.50;;
79019;SDS011;72857;44.740;37.770;2024-02-15T00:17:28;26.05;;;13.57;;
79019;SDS011;72857;44.740;37.770;2024-02-15T00:18:33;23.25;;;14.05;;
79019;SDS011;72857;44.740;37.770;2024-02-15T00:19:35;29.50;;;14.73;;
79019;SDS011;72857;44.740;37.770;2024-02-15T00:20:37;30.55;;;14.27;;
79019;SDS011;72857;44.740;37.770;2024-02-15T00:21:42;21.63;;;14.88;;
79019;SDS011;72857;44.740;37.770;2024-02-15T00:22:45;22.00;;;12.82;;
79019;SDS011;72857;44.740;37.770;2024-02-15T00:23:46;21.00;;;12.73;;
79019;SDS011;72857;44.740;37.770;2024-02-15T00:24:48;25.38;;;13.88;;
79019;SDS011;72857;44.740;37.770;2024-02-15T00:25:50;26.92;;;13.43;;
79019;SDS011;72857;44.740;37.770;2024-02-15T00:26:51;22.08;;;13.13;;
79019;SDS011;72857;44.740;37.770;2024-02-15T00:27:54;21.17;;;13.02;;
79019;SDS011;72857;44.740;37.770;2024-02-15T00:28:56;23.85;;;13.50;;
79019;SDS011;72857;44.740;37.770;2024-02-15T00:29:59;19.35;;;13.48;;
79019;SDS011;72857;44.740;37.770;2024-02-15T00:31:01;20.35;;;13.30;;
79019;SDS011;72857;44.740;37.770;2024-02-15T00:32:04;22.02;;;12.95;;
79019;SDS011;72857;44.740;37.770;2024-02-15T00:33:07;21.33;;;13.50;;
79019;SDS011;72857;44.740;37.770;2024-02-15T00:34:08;20.48;;;13.23;;
79019;SDS011;72857;44.740;37.770;2024-02-15T00:35:10;25.27;;;13.60;;
79019;SDS011;72857;44.740;37.770;2024-02-15T00:36:12;17.73;;;13.05;;
79019;SDS011;72857;44.740;37.770;2024-02-15T00:37:14;21.83;;;12.77;;
79019;SDS011;72857;44.740;37.770;2024-02-15T00:38:16;31.48;;;14.32;;
79019;SDS011;72857;44.740;37.770;2024-02-15T00:39:17;22.45;;;13.02;;
79019;SDS011;72857;44.740;37.770;2024-02-15T00:40:19;18.73;;;12.82;;
79019;SDS011;72857;44.740;37.770;2024-02-15T00:41:22;16.48;;;11.93;;
79019;SDS011;72857;44.740;37.770;2024-02-15T00:42:23;20.58;;;12.88;;
79019;SDS011;72857;44.740;37.770;2024-02-15T00:43:28;22.67;;;12.95;;
79019;SDS011;72857;44.740;37.770;2024-02-15T00:44:30;19.42;;;13.48;;
79019;SDS011;72857;44.740;37.770;2024-02-15T00:45:31;17.20;;;12.63;;
79019;SDS011;72857;44.740;37.770;2024-02-15T00:46:33;23.02;;;12.07;;
79019;SDS011;72857;44.740;37.770;2024-02-15T00:47:36;21.45;;;13.10;;
79019;SDS011;72857;44.740;37.770;2024-02-15T00:48:38;19.27;;;13.98;;
79019;SDS011;72857;44.740;37.770;2024-02-15T00:49:42;16.40;;;12.27;;
79019;SDS011;72857;44.740;37.770;2024-02-15T00:50:43;19.65;;;12.25;;
79019;SDS011;72857;44.740;37.770;2024-02-15T00:51:45;25.42;;;13.13;;
79019;SDS011;72857;44.740;37.770;2024-02-15T00:52:48;18.50;;;12.30;;
79019;SDS011;72857;44.740;37.770;2024-02-15T00:53:50;19.88;;;12.27;;
79019;SDS011;72857;44.740;37.770;2024-02-15T00:54:51;22.38;;;13.40;;
79019;SDS011;72857;44.740;37.770;2024-02-15T00:55:53;18.08;;;12.48;;
79019;SDS011;72857;44.740;37.770;2024-02-15T00:56:55;18.33;;;12.82;;
79019;SDS011;72857;44.740;37.770;2024-02-15T00:57:56;17.05;;;12.07;;
79019;SDS011;72857;44.740;37.770;2024-02-15T00:58:59;27.25;;;12.75;;
79019;SDS011;72857;44.740;37.770;2024-02-15T01:00:05;22.20;;;13.23;;
79019;SDS011;72857;44.740;37.770;2024-02-15T01:01:07;29.27;;;15.38;;
79019;SDS011;72857;44.740;37.770;2024-02-15T01:02:10;18.85;;;13.77;;
79019;SDS011;72857;44.740;37.770;2024-02-15T01:03:13;20.38;;;12.55;;
79019;SDS011;72857;44.740;37.770;2024-02-15T01:04:16;21.83;;;13.30;;
79019;SDS011;72857;44.740;37.770;2024-02-15T01:05:17;35.97;;;13.15;;
79019;SDS011;72857;44.740;37.770;2024-02-15T01:06:19;21.90;;;14.63;;
79019;SDS011;72857;44.740;37.770;2024-02-15T01:07:21;23.02;;;13.20;;
79019;SDS011;72857;44.740;37.770;2024-02-15T01:08:23;27.50;;;13.13;;
79019;SDS011;72857;44.740;37.770;2024-02-15T01:09:24;17.58;;;12.48;;
79019;SDS011;72857;44.740;37.770;2024-02-15T01:10:26;22.73;;;13.40;;
79019;SDS011;72857;44.740;37.770;2024-02-15T01:11:28;18.52;;;12.45;;
79019;SDS011;72857;44.740;37.770;2024-02-15T01:12:30;24.42;;;13.05;;
79019;SDS011;72857;44.740;37.770;2024-02-15T01:13:32;23.75;;;13.35;;
79019;SDS011;72857;44.740;37.770;2024-02-15T01:14:34;23.15;;;13.38;;
79019;SDS011;72857;44.740;37.770;2024-02-15T01:15:35;17.23;;;11.73;;
79019;SDS011;72857;44.740;37.770;2024-02-15T01:16:38;17.98;;;12.75;;
79019;SDS011;72857;44.740;37.770;2024-02-15T01:17:40;26.17;;;14.30;;
79019;SDS011;72857;44.740;37.770;2024-02-15T01:18:41;18.83;;;13.55;;
79019;SDS011;72857;44.740;37.770;2024-02-15T01:19:43;19.92;;;13.95;;
79019;SDS011;72857;44.740;37.770;2024-02-15T01:20:45;24.45;;;11.50;;
79019;SDS011;72857;44.740;37.770;2024-02-15T01:21:46;20.77;;;13.15;;
79019;SDS011;72857;44.740;37.770;2024-02-15T01:22:48;21.02;;;13.65;;
79019;SDS011;72857;44.740;37.770;2024-02-15T01:23:51;22.73;;;12.40;;
79019;SDS011;72857;44.740;37.770;2024-02-15T01:24:54;20.58;;;13.55;;
79019;SDS011;72857;44.740;37.770;2024-02-15T01:25:58;20.02;;;12.50;;
79019;SDS011;72857;44.740;37.770;2024-02-15T01:27:00;23.58;;;12.15;;
79019;SDS011;72857;44.740;37.770;2024-02-15T01:28:02;21.67;;;13.20;;
79019;SDS011;72857;44.740;37.770;2024-02-15T01:29:05;28.30;;;14.02;;
79019;SDS011;72857;44.740;37.770;2024-02-15T01:30:06;28.52;;;13.20;;
79019;SDS011;72857;44.740;37.770;2024-02-15T01:31:10;23.58;;;13.48;;
79019;SDS011;72857;44.740;37.770;2024-02-15T01:32:12;20.42;;;14.32;;
79019;SDS011;72857;44.740;37.770;2024-02-15T01:33:14;23.63;;;13.75;;
79019;SDS011;72857;44.740;37.770;2024-02-15T01:34:15;19.48;;;13.93;;
79019;SDS011;72857;44.740;37.770;2024-02-15T01:35:17;23.63;;;14.57;;
79019;SDS011;72857;44.740;37.770;2024-02-15T01:36:19;23.65;;;13.65;;
79019;SDS011;72857;44.740;37.770;2024-02-15T01:37:21;19.05;;;12.98;;
79019;SDS011;72857;44.740;37.770;2024-02-15T01:38:23;19.65;;;12.88;;
79019;SDS011;72857;44.740;37.770;2024-02-15T01:39:24;18.65;;;13.50;;
79019;SDS011;72857;44.740;37.770;2024-02-15T01:40:26;18.70;;;14.07;;
79019;SDS011;72857;44.740;37.770;2024-02-15T01:41:28;33.60;;;15.50;;
79019;SDS011;72857;44.740;37.770;2024-02-15T01:42:29;34.15;;;14.52;;
79019;SDS011;72857;44.740;37.770;2024-02-15T01:43:31;21.33;;;13.48;;
79019;SDS011;72857;44.740;37.770;2024-02-15T01:44:32;23.58;;;12.95;;
79019;SDS011;72857;44.740;37.770;2024-02-15T01:45:34;24.30;;;13.50;;
79019;SDS011;72857;44.740;37.770;2024-02-15T01:46:36;24.17;;;13.02;;
79019;SDS011;72857;44.740;37.770;2024-02-15T01:47:38;20.92;;;14.18;;
79019;SDS011;72857;44.740;37.770;2024-02-15T01:48:43;19.23;;;12.88;;
79019;SDS011;72857;44.740;37.770;2024-02-15T01:49:46;24.90;;;13.80;;
79019;SDS011;72857;44.740;37.770;2024-02-15T01:50:49;34.00;;;14.10;;
79019;SDS011;72857;44.740;37.770;2024-02-15T01:51:52;19.35;;;13.30;;
79019;SDS011;72857;44.740;37.770;2024-02-15T01:52:57;18.50;;;13.02;;
79019;SDS011;72857;44.740;37.770;2024-02-15T01:54:00;18.73;;;13.40;;
79019;SDS011;72857;44.740;37.770;2024-02-15T01:55:02;20.33;;;13.93;;
79019;SDS011;72857;44.740;37.770;2024-02-15T01:56:08;24.02;;;13.30;;
79019;SDS011;72857;44.740;37.770;2024-02-15T01:57:14;23.52;;;13.65;;
79019;SDS011;72857;44.740;37.770;2024-02-15T01:58:16;21.35;;;13.27;;
79019;SDS011;72857;44.740;37.770;2024-02-15T01:59:22;26.20;;;14.57;;
79019;SDS011;72857;44.740;37.770;2024-02-15T02:00:24;22.10;;;13.95;;
79019;SDS011;72857;44.740;37.770;2024-02-15T02:01:29;20.67;;;15.88;;
79019;SDS011;72857;44.740;37.770;2024-02-15T02:02:35;18.83;;;14.00;;
79019;SDS011;72857;44.740;37.770;2024-02-15T02:03:40;22.77;;;14.43;;
79019;SDS011;72857;44.740;37.770;2024-02-15T02:04:42;24.38;;;14.45;;
79019;SDS011;72857;44.740;37.770;2024-02-15T02:05:44;20.67;;;13.77;;
79019;SDS011;72857;44.740;37.770;2024-02-15T02:06:46;21.35;;;12.95;;
79019;SDS011;72857;44.740;37.770;2024-02-15T02:07:47;25.85;;;14.20;;
79019;SDS011;72857;44.740;37.770;2024-02-15T02:08:49;26.27;;;14.43;;
79019;SDS011;72857;44.740;37.770;2024-02-15T02:09:51;22.58;;;15.23;;
79019;SDS011;72857;44.740;37.770;2024-02-15T02:10:52;20.98;;;14.82;;
79019;SDS011;72857;44.740;37.770;2024-02-15T02:11:54;18.05;;;13.07;;
79019;SDS011;72857;44.740;37.770;2024-02-15T02:12:56;22.58;;;17.50;;
79019;SDS011;72857;44.740;37.770;2024-02-15T02:13:57;20.75;;;13.65;;
79019;SDS011;72857;44.740;37.770;2024-02-15T02:14:59;27.70;;;15.70;;
79019;SDS011;72857;44.740;37.770;2024-02-15T02:16:01;24.00;;;14.07;;
79019;SDS011;72857;44.740;37.770;2024-02-15T02:17:12;26.45;;;15.15;;
79019;SDS011;72857;44.740;37.770;2024-02-15T02:18:15;21.33;;;14.50;;
79019;SDS011;72857;44.740;37.770;2024-02-15T02:19:17;23.05;;;14.07;;
79019;SDS011;72857;44.740;37.770;2024-02-15T02:20:19;20.33;;;14.93;;
79019;SDS011;72857;44.740;37.770;2024-02-15T02:21:20;21.52;;;14.63;;
79019;SDS011;72857;44.740;37.770;2024-02-15T02:22:22;22.65;;;14.13;;
79019;SDS011;72857;44.740;37.770;2024-02-15T02:23:25;28.05;;;18.02;;
79019;SDS011;72857;44.740;37.770;2024-02-15T02:24:27;24.58;;;14.65;;
79019;SDS011;72857;44.740;37.770;2024-02-15T02:25:29;22.88;;;14.73;;
79019;SDS011;72857;44.740;37.770;2024-02-15T02:26:31;26.42;;;16.33;;
79019;SDS011;72857;44.740;37.770;2024-02-15T02:27:33;24.50;;;15.80;;
79019;SDS011;72857;44.740;37.770;2024-02-15T02:28:35;20.13;;;15.88;;
79019;SDS011;72857;44.740;37.770;2024-02-15T02:29:41;25.15;;;17.02;;
79019;SDS011;72857;44.740;37.770;2024-02-15T02:30:47;25.67;;;15.63;;
79019;SDS011;72857;44.740;37.770;2024-02-15T02:31:48;26.60;;;15.80;;
79019;SDS011;72857;44.740;37.770;2024-02-15T02:32:50;22.63;;;16.80;;
79019;SDS011;72857;44.740;37.770;2024-02-15T02:33:52;32.25;;;18.85;;
79019;SDS011;72857;44.740;37.770;2024-02-15T02:34:55;27.02;;;17.75;;
79019;SDS011;72857;44.740;37.770;2024-02-15T02:35:58;29.05;;;16.40;;
79019;SDS011;72857;44.740;37.770;2024-02-15T02:37:00;23.42;;;15.68;;
79019;SDS011;72857;44.740;37.770;2024-02-15T02:38:05;26.08;;;16.02;;
79019;SDS011;72857;44.740;37.770;2024-02-15T02:39:07;26.25;;;17.52;;
79019;SDS011;72857;44.740;37.770;2024-02-15T02:40:09;30.20;;;18.15;;
79019;SDS011;72857;44.740;37.770;2024-02-15T02:41:13;24.80;;;16.75;;
79019;SDS011;72857;44.740;37.770;2024-02-15T02:42:15;25.80;;;16.65;;
79019;SDS011;72857;44.740;37.770;2024-02-15T02:43:16;22.35;;;16.73;;
79019;SDS011;72857;44.740;37.770;2024-02-15T02:44:18;23.10;;;16.13;;
79019;SDS011;72857;44.740;37.770;2024-02-15T02:45:20;28.23;;;16.42;;
79019;SDS011;72857;44.740;37.770;2024-02-15T02:46:23;25.20;;;18.65;;
79019;SDS011;72857;44.740;37.770;2024-02-15T02:47:25;26.30;;;17.10;;
79019;SDS011;72857;44.740;37.770;2024-02-15T02:48:26;24.67;;;16.98;;
79019;SDS011;72857;44.740;37.770;2024-02-15T02:49:28;30.95;;;18.95;;
79019;SDS011;72857;44.740;37.770;2024-02-15T02:50:30;25.88;;;17.17;;
79019;SDS011;72857;44.740;37.770;2024-02-15T02:51:31;22.80;;;15.50;;
79019;SDS011;72857;44.740;37.770;2024-02-15T02:52:33;29.27;;;19.55;;
79019;SDS011;72857;44.740;37.770;2024-02-15T02:53:35;23.15;;;17.58;;
79019;SDS011;72857;44.740;37.770;2024-02-15T02:54:36;26.75;;;19.40;;
79019;SDS011;72857;44.740;37.770;2024-02-15T02:55:38;23.65;;;17.23;;
79019;SDS011;72857;44.740;37.770;2024-02-15T02:56:41;28.25;;;17.98;;
79019;SDS011;72857;44.740;37.770;2024-02-15T02:57:44;33.20;;;20.02;;
79019;SDS011;72857;44.740;37.770;2024-02-15T02:58:46;27.17;;;18.30;;
79019;SDS011;72857;44.740;37.770;2024-02-15T02:59:48;27.60;;;19.25;;
79019;SDS011;72857;44.740;37.770;2024-02-15T03:00:49;27.75;;;18.77;;
79019;SDS011;72857;44.740;37.770;2024-02-15T03:01:52;30.15;;;18.55;;
79019;SDS011;72857;44.740;37.770;2024-02-15T03:02:57;27.88;;;19.13;;
79019;SDS011;72857;44.740;37.770;2024-02-15T03:03:59;25.00;;;18.75;;
79019;SDS011;72857;44.740;37.770;2024-02-15T03:05:04;29.40;;;18.83;;
79019;SDS011;72857;44.740;37.770;2024-02-15T03:06:08;27.23;;;19.25;;
79019;SDS011;72857;44.740;37.770;2024-02-15T03:07:09;35.40;;;19.63;;
79019;SDS011;72857;44.740;37.770;2024-02-15T03:08:11;31.55;;;18.88;;
79019;SDS011;72857;44.740;37.770;2024-02-15T03:09:23;41.80;;;19.25;;
79019;SDS011;72857;44.740;37.770;2024-02-15T03:10:27;50.78;;;21.95;;
79019;SDS011;72857;44.740;37.770;2024-02-15T03:11:28;45.78;;;20.08;;
79019;SDS011;72857;44.740;37.770;2024-02-15T03:12:30;25.30;;;18.02;;
79019;SDS011;72857;44.740;37.770;2024-02-15T03:13:32;31.23;;;19.90;;
79019;SDS011;72857;44.740;37.770;2024-02-15T03:14:34;27.52;;;20.52;;
79019;SDS011;72857;44.740;37.770;2024-02-15T03:15:36;28.63;;;21.80;;
79019;SDS011;72857;44.740;37.770;2024-02-15T03:16:38;27.45;;;20.33;;
79019;SDS011;72857;44.740;37.770;2024-02-15T03:17:42;32.35;;;19.38;;
79019;SDS011;72857;44.740;37.770;2024-02-15T03:18:46;26.25;;;19.02;;
79019;SDS011;72857;44.740;37.770;2024-02-15T03:19:49;31.63;;;20.35;;
79019;SDS011;72857;44.740;37.770;2024-02-15T03:20:51;54.25;;;21.40;;
79019;SDS011;72857;44.740;37.770;2024-02-15T03:21:53;33.67;;;21.10;;
79019;SDS011;72857;44.740;37.770;2024-02-15T03:22:57;36.92;;;20.35;;
79019;SDS011;72857;44.740;37.770;2024-02-15T03:23:59;44.15;;;21.83;;
79019;SDS011;72857;44.740;37.770;2024-02-15T03:25:01;33.58;;;20.35;;
79019;SDS011;72857;44.740;37.770;2024-02-15T03:26:04;43.20;;;21.90;;
79019;SDS011;72857;44.740;37.770;2024-02-15T03:27:09;27.00;;;18.52;;
79019;SDS011;72857;44.740;37.770;2024-02-15T03:28:11;32.58;;;20.60;;
79019;SDS011;72857;44.740;37.770;2024-02-15T03:29:13;30.13;;;20.25;;
79019;SDS011;72857;44.740;37.770;2024-02-15T03:30:14;31.95;;;22.27;;
79019;SDS011;72857;44.740;37.770;2024-02-15T03:31:16;29.58;;;20.17;;
79019;SDS011;72857;44.740;37.770;2024-02-15T03:32:19;49.63;;;23.48;;
79019;SDS011;72857;44.740;37.770;2024-02-15T03:33:21;40.03;;;18.90;;
79019;SDS011;72857;44.740;37.770;2024-02-15T03:34:27;36.80;;;21.15;;
79019;SDS011;72857;44.740;37.770;2024-02-15T03:35:29;35.50;;;20.70;;
79019;SDS011;72857;44.740;37.770;2024-02-15T03:36:32;50.92;;;22.45;;
79019;SDS011;72857;44.740;37.770;2024-02-15T03:37:34;42.65;;;20.00;;
79019;SDS011;72857;44.740;37.770;2024-02-15T03:38:38;32.47;;;20.15;;
79019;SDS011;72857;44.740;37.770;2024-02-15T03:39:39;36.08;;;22.38;;
79019;SDS011;72857;44.740;37.770;2024-02-15T03:40:41;33.80;;;22.92;;
79019;SDS011;72857;44.740;37.770;2024-02-15T03:41:43;30.77;;;21.75;;
79019;SDS011;72857;44.740;37.770;2024-02-15T03:42:46;45.33;;;22.65;;
79019;SDS011;72857;44.740;37.770;2024-02-15T03:43:48;34.28;;;20.80;;
79019;SDS011;72857;44.740;37.770;2024-02-15T03:44:50;30.45;;;21.92;;
79019;SDS011;72857;44.740;37.770;2024-02-15T03:45:51;39.28;;;23.88;;
79019;SDS011;72857;44.740;37.770;2024-02-15T03:46:53;36.35;;;22.88;;
79019;SDS011;72857;44.740;37.770;2024-02-15T03:47:56;39.45;;;22.60;;
79019;SDS011;72857;44.740;37.770;2024-02-15T03:48:57;35.70;;;21.95;;
79019;SDS011;72857;44.740;37.770;2024-02-15T03:50:00;39.75;;;24.00;;
79019;SDS011;72857;44.740;37.770;2024-02-15T03:51:01;40.50;;;22.52;;
79019;SDS011;72857;44.740;37.770;2024-02-15T03:52:04;174.85;;;27.83;;
79019;SDS011;72857;44.740;37.770;2024-02-15T03:53:08;32.92;;;22.23;;
79019;SDS011;72857;44.740;37.770;2024-02-15T03:54:12;37.17;;;21.05;;
79019;SDS011;72857;44.740;37.770;2024-02-15T03:55:13;35.65;;;21.77;;
79019;SDS011;72857;44.740;37.770;2024-02-15T03:56:16;35.00;;;19.92;;
79019;SDS011;72857;44.740;37.770;2024-02-15T03:57:18;30.67;;;20.15;;
79019;SDS011;72857;44.740;37.770;2024-02-15T03:58:21;36.03;;;22.38;;
79019;SDS011;72857;44.740;37.770;2024-02-15T03:59:23;32.28;;;20.73;;
79019;SDS011;72857;44.740;37.770;2024-02-15T04:00:28;38.92;;;24.27;;
79019;SDS011;72857;44.740;37.770;2024-02-15T04:01:30;31.15;;;21.08;;
79019;SDS011;72857;44.740;37.770;2024-02-15T04:02:35;41.42;;;20.42;;
79019;SDS011;72857;44.740;37.770;2024-02-15T04:03:36;35.10;;;23.17;;
79019;SDS011;72857;44.740;37.770;2024-02-15T04:04:38;41.90;;;22.25;;
79019;SDS011;72857;44.740;37.770;2024-02-15T04:05:43;37.45;;;22.10;;
79019;SDS011;72857;44.740;37.770;2024-02-15T04:06:44;38.85;;;21.30;;
79019;SDS011;72857;44.740;37.770;2024-02-15T04:07:46;36.15;;;20.55;;
79019;SDS011;72857;44.740;37.770;2024-02-15T04:08:47;31.20;;;19.55;;
79019;SDS011;72857;44.740;37.770;2024-02-15T04:09:51;32.30;;;21.50;;
79019;SDS011;72857;44.740;37.770;2024-02-15T04:10:52;35.72;;;22.85;;
79019;SDS011;72857;44.740;37.770;2024-02-15T04:11:54;36.22;;;22.60;;
79019;SDS011;72857;44.740;37.770;2024-02-15T04:12:58;35.25;;;23.42;;
79019;SDS011;72857;44.740;37.770;2024-02-15T04:13:59;28.98;;;19.88;;
79019;SDS011;72857;44.740;37.770;2024-02-15T04:15:01;43.67;;;23.17;;
79019;SDS011;72857;44.740;37.770;2024-02-15T04:16:12;40.40;;;27.15;;
79019;SDS011;72857;44.740;37.770;2024-02-15T04:17:14;43.42;;;23.60;;
79019;SDS011;72857;44.740;37.770;2024-02-15T04:18:22;39.83;;;21.90;;
79019;SDS011;72857;44.740;37.770;2024-02-15T04:19:24;44.53;;;24.38;;
79019;SDS011;72857;44.740;37.770;2024-02-15T04:20:25;41.50;;;24.10;;
79019;SDS011;72857;44.740;37.770;2024-02-15T04:21:27;35.10;;;22.13;;
79019;SDS011;72857;44.740;37.770;2024-02-15T04:22:29;38.17;;;21.70;;
79019;SDS011;72857;44.740;37.770;2024-02-15T04:23:33;37.78;;;23.52;;
79019;SDS011;72857;44.740;37.770;2024-02-15T04:24:35;33.47;;;21.70;;
79019;SDS011;72857;44.740;37.770;2024-02-15T04:25:40;52.00;;;23.80;;
79019;SDS011;72857;44.740;37.770;2024-02-15T04:27:48;33.30;;;19.50;;
79019;SDS011;72857;44.740;37.770;2024-02-15T04:28:53;41.13;;;25.00;;
79019;SDS011;72857;44.740;37.770;2024-02-15T04:29:54;38.53;;;23.40;;
79019;SDS011;72857;44.740;37.770;2024-02-15T04:30:56;41.05;;;23.60;;
79019;SDS011;72857;44.740;37.770;2024-02-15T04:31:58;46.65;;;21.90;;
79019;SDS011;72857;44.740;37.770;2024-02-15T04:32:59;32.28;;;20.27;;
79019;SDS011;72857;44.740;37.770;2024-02-15T04:34:01;37.75;;;23.80;;
79019;SDS011;72857;44.740;37.770;2024-02-15T04:35:03;39.53;;;24.23;;
79019;SDS011;72857;44.740;37.770;2024-02-15T04:36:06;39.38;;;22.92;;
79019;SDS011;72857;44.740;37.770;2024-02-15T04:37:08;41.83;;;26.30;;
79019;SDS011;72857;44.740;37.770;2024-02-15T04:38:10;40.28;;;23.67;;
79019;SDS011;72857;44.740;37.770;2024-02-15T04:39:11;48.95;;;26.98;;
79019;SDS011;72857;44.740;37.770;2024-02-15T04:40:24;37.22;;;23.77;;
79019;SDS011;72857;44.740;37.770;2024-02-15T04:41:26;40.65;;;24.88;;
79019;SDS011;72857;44.740;37.770;2024-02-15T04:42:28;39.22;;;23.50;;
79019;SDS011;72857;44.740;37.770;2024-02-15T04:43:31;57.45;;;22.98;;
79019;SDS011;72857;44.740;37.770;2024-02-15T04:44:34;39.20;;;24.95;;
79019;SDS011;72857;44.740;37.770;2024-02-15T04:45:36;36.90;;;24.02;;
79019;SDS011;72857;44.740;37.770;2024-02-15T04:46:40;40.78;;;23.58;;
79019;SDS011;72857;44.740;37.770;2024-02-15T04:47:43;37.28;;;22.05;;
79019;SDS011;72857;44.740;37.770;2024-02-15T04:48:46;34.67;;;22.80;;
79019;SDS011;72857;44.740;37.770;2024-02-15T04:49:51;35.25;;;22.70;;
79019;SDS011;72857;44.740;37.770;2024-02-15T04:50:53;48.10;;;25.67;;
79019;SDS011;72857;44.740;37.770;2024-02-15T04:51:55;40.35;;;22.23;;
79019;SDS011;72857;44.740;37.770;2024-02-15T04:53:03;37.08;;;24.05;;
79019;SDS011;72857;44.740;37.770;2024-02-15T04:54:09;33.25;;;21.48;;
79019;SDS011;72857;44.740;37.770;2024-02-15T04:55:14;44.30;;;22.30;;
79019;SDS011;72857;44.740;37.770;2024-02-15T04:56:16;38.78;;;22.58;;
79019;SDS011;72857;44.740;37.770;2024-02-15T04:57:18;40.25;;;25.27;;
79019;SDS011;72857;44.740;37.770;2024-02-15T04:58:19;42.28;;;22.55;;
79019;SDS011;72857;44.740;37.770;2024-02-15T04:59:21;39.03;;;25.42;;
79019;SDS011;72857;44.740;37.770;2024-02-15T05:00:26;42.67;;;27.30;;
79019;SDS011;72857;44.740;37.770;2024-02-15T05:01:29;37.60;;;22.75;;
79019;SDS011;72857;44.740;37.770;2024-02-15T05:02:34;42.80;;;24.83;;
79019;SDS011;72857;44.740;37.770;2024-02-15T05:03:41;43.83;;;24.67;;
79019;SDS011;72857;44.740;37.770;2024-02-15T05:04:46;42.35;;;25.10;;
79019;SDS011;72857;44.740;37.770;2024-02-15T05:05:48;38.58;;;21.75;;
79019;SDS011;72857;44.740;37.770;2024-02-15T05:06:50;38.78;;;25.25;;
79019;SDS011;72857;44.740;37.770;2024-02-15T05:07:52;48.60;;;26.73;;
79019;SDS011;72857;44.740;37.770;2024-02-15T05:08:54;35.28;;;19.67;;
79019;SDS011;72857;44.740;37.770;2024-02-15T05:09:57;39.13;;;23.33;;
79019;SDS011;72857;44.740;37.770;2024-02-15T05:10:59;37.72;;;24.13;;
79019;SDS011;72857;44.740;37.770;2024-02-15T05:12:01;39.10;;;23.88;;
79019;SDS011;72857;44.740;37.770;2024-02-15T05:13:03;35.42;;;21.98;;
79019;SDS011;72857;44.740;37.770;2024-02-15T05:14:04;41.08;;;22.35;;
79019;SDS011;72857;44.740;37.770;2024-02-15T05:15:08;32.45;;;20.58;;
79019;SDS011;72857;44.740;37.770;2024-02-15T05:16:14;39.67;;;22.25;;
79019;SDS011;72857;44.740;37.770;2024-02-15T05:17:17;38.30;;;23.27;;
79019;SDS011;72857;44.740;37.770;2024-02-15T05:18:18;35.75;;;22.85;;
79019;SDS011;72857;44.740;37.770;2024-02-15T05:19:20;35.88;;;21.33;;
79019;SDS011;72857;44.740;37.770;2024-02-15T05:20:22;36.45;;;22.70;;
79019;SDS011;72857;44.740;37.770;2024-02-15T05:21:26;37.25;;;23.77;;
79019;SDS011;72857;44.740;37.770;2024-02-15T05:22:27;52.17;;;23.77;;
79019;SDS011;72857;44.740;37.770;2024-02-15T05:23:29;47.40;;;23.08;;
79019;SDS011;72857;44.740;37.770;2024-02-15T05:24:31;33.80;;;21.33;;
79019;SDS011;72857;44.740;37.770;2024-02-15T05:25:33;37.22;;;23.50;;
79019;SDS011;72857;44.740;37.770;2024-02-15T05:26:36;35.50;;;22.23;;
79019;SDS011;72857;44.740;37.770;2024-02-15T05:27:38;39.00;;;21.92;;
79019;SDS011;72857;44.740;37.770;2024-02-15T05:28:39;38.78;;;23.50;;
79019;SDS011;72857;44.740;37.770;2024-02-15T05:29:41;37.03;;;22.75;;
79019;SDS011;72857;44.740;37.770;2024-02-15T05:30:44;42.33;;;23.90;;
79019;SDS011;72857;44.740;37.770;2024-02-15T05:31:46;36.13;;;22.08;;
79019;SDS011;72857;44.740;37.770;2024-02-15T05:32:51;37.13;;;22.02;;
79019;SDS011;72857;44.740;37.770;2024-02-15T05:33:54;40.88;;;23.83;;
79019;SDS011;72857;44.740;37.770;2024-02-15T05:34:55;33.53;;;21.90;;
79019;SDS011;72857;44.740;37.770;2024-02-15T05:35:57;36.42;;;24.63;;
79019;SDS011;72857;44.740;37.770;2024-02-15T05:36:59;34.83;;;22.67;;
79019;SDS011;72857;44.740;37.770;2024-02-15T05:38:00;39.72;;;25.58;;
79019;SDS011;72857;44.740;37.770;2024-02-15T05:39:05;36.70;;;22.90;;
79019;SDS011;72857;44.740;37.770;2024-02-15T05:40:06;32.67;;;21.98;;
79019;SDS011;72857;44.740;37.770;2024-02-15T05:41:16;33.40;;;22.35;;
79019;SDS011;72857;44.740;37.770;2024-02-15T05:42:17;36.85;;;21.15;;
79019;SDS011;72857;44.740;37.770;2024-02-15T05:43:19;39.28;;;22.77;;
79019;SDS011;72857;44.740;37.770;2024-02-15T05:44:21;35.63;;;23.55;;
79019;SDS011;72857;44.740;37.770;2024-02-15T05:46:27;33.00;;;21.23;;
79019;SDS011;72857;44.740;37.770;2024-02-15T05:47:32;38.20;;;24.15;;
79019;SDS011;72857;44.740;37.770;2024-02-15T05:48:34;40.50;;;25.05;;
79019;SDS011;72857;44.740;37.770;2024-02-15T05:49:37;33.45;;;21.75;;
79019;SDS011;72857;44.740;37.770;2024-02-15T05:50:39;33.40;;;19.83;;
79019;SDS011;72857;44.740;37.770;2024-02-15T05:51:41;32.67;;;19.48;;
79019;SDS011;72857;44.740;37.770;2024-02-15T05:52:43;36.58;;;21.02;;
79019;SDS011;72857;44.740;37.770;2024-02-15T05:53:45;64.55;;;23.30;;
79019;SDS011;72857;44.740;37.770;2024-02-15T05:54:46;44.28;;;24.70;;
79019;SDS011;72857;44.740;37.770;2024-02-15T05:55:48;46.25;;;27.45;;
79019;SDS011;72857;44.740;37.770;2024-02-15T05:56:50;41.90;;;22.38;;
79019;SDS011;72857;44.740;37.770;2024-02-15T05:58:00;32.45;;;22.15;;
79019;SDS011;72857;44.740;37.770;2024-02-15T05:59:02;30.83;;;17.45;;
79019;SDS011;72857;44.740;37.770;2024-02-15T06:00:11;41.63;;;24.85;;
79019;SDS011;72857;44.740;37.770;2024-02-15T06:01:13;34.30;;;20.85;;
79019;SDS011;72857;44.740;37.770;2024-02-15T06:02:15;39.42;;;22.80;;
79019;SDS011;72857;44.740;37.770;2024-02-15T06:03:16;30.65;;;20.05;;